createdAt,value
2023-10-31T00:00:33.091Z,12.50
2023-10-31T00:03:20.871Z,12.40
2023-10-31T00:05:48.783Z,12.40
2023-10-31T00:08:16.779Z,11.90
2023-10-31T00:10:46.020Z,11.50
2023-10-31T00:13:13.855Z,11.60
2023-10-31T00:15:41.634Z,11.50
2023-10-31T00:18:09.490Z,11.90
2023-10-31T00:20:37.417Z,11.40
2023-10-31T00:23:05.357Z,11.70
2023-10-31T00:25:33.268Z,11.50
2023-10-31T00:28:01.191Z,11.20
2023-10-31T00:30:29.027Z,11.60
2023-10-31T00:32:57.087Z,11.30
2023-10-31T00:35:24.786Z,11.50
2023-10-31T00:37:52.648Z,11.50
2023-10-31T00:40:20.649Z,11.50
2023-10-31T00:42:48.361Z,11.20
2023-10-31T00:45:42.072Z,11.30
2023-10-31T00:48:09.912Z,11.70
2023-10-31T00:50:37.694Z,11.70
2023-10-31T00:53:05.531Z,11.80
2023-10-31T00:55:33.294Z,11.30
2023-10-31T00:58:01.196Z,11.40
2023-10-31T01:00:28.973Z,11.20
2023-10-31T01:02:57.577Z,10.90
2023-10-31T01:05:25.577Z,10.80
2023-10-31T01:07:53.408Z,11.10
2023-10-31T01:10:21.772Z,10.90
2023-10-31T01:12:49.630Z,10.70
2023-10-31T01:15:17.704Z,10.40
2023-10-31T01:17:46.069Z,10.40
2023-10-31T01:20:14.421Z,10.80
2023-10-31T01:22:43.059Z,10.00
2023-10-31T01:25:11.831Z,9.80
2023-10-31T01:27:39.707Z,10.40
2023-10-31T01:30:08.292Z,9.80
2023-10-31T01:32:36.145Z,10.30
2023-10-31T01:35:05.426Z,9.80
2023-10-31T01:37:33.336Z,10.30
2023-10-31T01:40:01.272Z,9.90
2023-10-31T01:42:29.167Z,9.50
2023-10-31T01:44:57.447Z,9.20
2023-10-31T01:47:25.659Z,9.70
2023-10-31T01:49:53.768Z,9.50
2023-10-31T01:52:21.669Z,9.60
2023-10-31T01:54:50.392Z,9.30
2023-10-31T01:57:23.223Z,8.80
2023-10-31T01:59:51.344Z,8.90
2023-10-31T02:02:22.651Z,8.40
2023-10-31T02:04:52.476Z,8.60
2023-10-31T02:07:20.350Z,8.30
2023-10-31T02:09:48.160Z,8.40
2023-10-31T02:12:35.946Z,8.40
2023-10-31T02:15:09.771Z,8.70
2023-10-31T02:17:37.550Z,8.50
2023-10-31T02:20:06.301Z,8.80
2023-10-31T02:22:37.431Z,8.10
2023-10-31T02:25:19.562Z,8.50
2023-10-31T02:27:47.761Z,8.50
2023-10-31T02:30:15.788Z,7.90
2023-10-31T02:32:44.151Z,8.30
2023-10-31T02:35:13.745Z,7.80
2023-10-31T02:37:41.598Z,8.00
2023-10-31T02:40:09.999Z,7.70
2023-10-31T02:42:37.881Z,7.80
2023-10-31T02:45:07.904Z,7.60
2023-10-31T02:47:37.776Z,7.90
2023-10-31T02:50:06.348Z,7.70
2023-10-31T02:52:34.121Z,7.50
2023-10-31T02:55:01.866Z,8.00
2023-10-31T02:57:29.982Z,7.30
2023-10-31T02:59:57.760Z,7.80
2023-10-31T03:02:25.726Z,7.30
2023-10-31T03:04:53.703Z,7.00
2023-10-31T03:07:21.531Z,7.20
2023-10-31T03:09:49.334Z,7.00
2023-10-31T03:12:17.259Z,6.90
2023-10-31T03:14:45.008Z,7.10
2023-10-31T03:17:12.845Z,7.10
2023-10-31T03:19:40.786Z,6.60
2023-10-31T03:22:08.581Z,6.80
2023-10-31T03:24:36.951Z,7.10
2023-10-31T03:27:04.678Z,6.90
2023-10-31T03:29:33.019Z,6.90
2023-10-31T03:32:00.924Z,6.40
2023-10-31T03:34:28.680Z,6.60
2023-10-31T03:36:56.473Z,6.20
2023-10-31T03:39:24.388Z,6.70
2023-10-31T03:41:52.164Z,6.30
2023-10-31T03:44:19.881Z,5.90
2023-10-31T03:46:47.719Z,6.10
2023-10-31T03:49:15.551Z,5.80
2023-10-31T03:51:43.496Z,5.90
2023-10-31T03:54:11.755Z,5.90
2023-10-31T03:56:43.776Z,5.80
2023-10-31T03:59:11.722Z,5.90
2023-10-31T04:01:39.541Z,5.90
2023-10-31T04:04:07.829Z,6.20
2023-10-31T04:06:36.232Z,5.40
2023-10-31T04:09:04.241Z,5.20
2023-10-31T04:11:32.080Z,5.20
2023-10-31T04:13:59.968Z,5.30
2023-10-31T04:16:27.811Z,4.90
2023-10-31T04:18:55.594Z,5.00
2023-10-31T04:21:23.427Z,4.90
2023-10-31T04:23:51.195Z,4.80
2023-10-31T04:26:19.130Z,5.10
2023-10-31T04:28:46.924Z,4.70
2023-10-31T04:31:14.920Z,4.50
2023-10-31T04:33:42.741Z,4.70
2023-10-31T04:36:11.283Z,4.40
2023-10-31T04:38:42.008Z,4.40
2023-10-31T04:41:11.013Z,4.40
2023-10-31T04:43:57.643Z,4.40
2023-10-31T04:46:28.466Z,4.30
2023-10-31T04:48:56.665Z,4.10
2023-10-31T04:51:24.570Z,4.00
2023-10-31T04:53:52.630Z,4.10
2023-10-31T04:56:20.510Z,4.30
2023-10-31T04:58:49.229Z,4.00
2023-10-31T05:01:17.363Z,3.90
2023-10-31T05:03:45.826Z,3.90
2023-10-31T05:06:21.024Z,3.70
2023-10-31T05:08:49.887Z,4.00
2023-10-31T05:11:19.360Z,4.00
2023-10-31T05:13:47.231Z,3.60
2023-10-31T05:16:15.576Z,4.30
2023-10-31T05:18:44.652Z,3.70
2023-10-31T05:21:12.711Z,4.20
2023-10-31T05:23:40.528Z,3.80
2023-10-31T05:26:11.027Z,3.90
2023-10-31T05:28:41.285Z,3.70
2023-10-31T05:31:12.553Z,3.70
2023-10-31T05:33:40.342Z,3.80
2023-10-31T05:38:40.156Z,3.50
2023-10-31T05:42:42.929Z,3.50
2023-10-31T05:46:10.973Z,3.60
2023-10-31T05:48:40.917Z,4.00
2023-10-31T05:52:23.676Z,3.70
2023-10-31T05:54:50.255Z,3.60
2023-10-31T05:57:16.727Z,3.70
2023-10-31T05:59:43.131Z,3.70
2023-10-31T06:02:10.683Z,3.70
2023-10-31T06:04:37.129Z,4.00
2023-10-31T06:07:03.890Z,4.00
2023-10-31T06:09:30.284Z,3.90
2023-10-31T06:11:56.737Z,3.80
2023-10-31T06:14:23.132Z,3.90
2023-10-31T06:16:49.634Z,3.70
2023-10-31T06:19:16.234Z,3.70
2023-10-31T06:21:42.897Z,3.80
2023-10-31T06:24:09.764Z,3.90
2023-10-31T06:26:36.349Z,3.60
2023-10-31T06:29:18.162Z,4.40
2023-10-31T06:31:49.321Z,4.00
2023-10-31T06:34:16.425Z,4.00
2023-10-31T06:36:42.900Z,4.20
2023-10-31T06:39:10.149Z,4.30
2023-10-31T06:41:38.352Z,4.50
2023-10-31T06:44:04.942Z,4.20
2023-10-31T06:46:31.918Z,3.90
2023-10-31T06:48:58.629Z,4.10
2023-10-31T06:51:25.440Z,4.10
2023-10-31T06:53:52.688Z,4.50
2023-10-31T06:56:19.508Z,4.40
2023-10-31T06:58:47.983Z,4.00
2023-10-31T07:01:20.343Z,4.10
2023-10-31T07:03:47.951Z,3.80
2023-10-31T07:06:14.454Z,4.10
2023-10-31T07:08:41.219Z,4.00
2023-10-31T07:11:07.811Z,4.60
2023-10-31T07:13:37.505Z,4.60
2023-10-31T07:16:05.926Z,3.90
2023-10-31T07:18:32.492Z,4.10
2023-10-31T07:20:59.014Z,4.20
2023-10-31T07:23:25.614Z,4.00
2023-10-31T07:25:52.492Z,4.00
2023-10-31T07:28:19.106Z,4.20
2023-10-31T07:30:45.707Z,4.30
2023-10-31T07:33:12.161Z,4.10
2023-10-31T07:35:39.911Z,4.10
2023-10-31T07:38:06.649Z,3.90
2023-10-31T07:40:33.258Z,4.30
2023-10-31T07:42:59.921Z,3.90
2023-10-31T07:45:28.548Z,4.40
2023-10-31T07:47:54.980Z,4.10
2023-10-31T07:50:21.574Z,3.80
2023-10-31T07:52:48.221Z,4.00
2023-10-31T07:55:39.813Z,4.10
2023-10-31T07:58:06.308Z,3.70
2023-10-31T08:00:35.059Z,4.60
2023-10-31T08:03:02.538Z,4.10
2023-10-31T08:05:29.448Z,4.30
2023-10-31T08:11:27.615Z,4.30
2023-10-31T08:13:54.572Z,4.30
2023-10-31T08:16:21.325Z,4.20
2023-10-31T08:19:51.395Z,3.90
2023-10-31T08:23:08.731Z,4.30
2023-10-31T08:26:46.727Z,4.10
2023-10-31T08:45:18.246Z,4.60
2023-10-31T08:58:56.410Z,4.20
2023-10-31T09:12:09.426Z,3.70
2023-10-31T09:25:59.593Z,3.90
2023-10-31T09:28:51.794Z,4.10
2023-10-31T09:32:47.280Z,4.20
2023-10-31T09:46:32.058Z,3.80
2023-10-31T09:49:00.717Z,4.40
2023-10-31T09:51:29.362Z,4.20
2023-10-31T09:53:58.852Z,3.90
2023-10-31T09:56:28.127Z,4.50
2023-10-31T09:58:56.781Z,4.40
2023-10-31T10:01:26.929Z,4.80
2023-10-31T10:03:55.997Z,4.20
2023-10-31T10:06:24.772Z,4.30
2023-10-31T10:20:19.621Z,3.30
2023-10-31T10:23:14.500Z,3.50
2023-10-31T10:37:11.432Z,3.20
2023-10-31T10:40:02.026Z,3.20
2023-10-31T10:43:40.472Z,3.00
2023-10-31T10:47:40.105Z,3.60
2023-10-31T10:51:07.500Z,3.60
2023-10-31T10:54:52.485Z,3.50
2023-10-31T10:58:51.559Z,3.20
2023-10-31T11:02:34.155Z,3.20
2023-10-31T11:06:35.683Z,3.30
2023-10-31T11:09:52.018Z,3.20
2023-10-31T11:13:33.479Z,3.70
2023-10-31T11:17:30.160Z,3.90
2023-10-31T11:21:08.771Z,3.40
2023-10-31T11:25:16.698Z,3.60
2023-10-31T11:28:28.219Z,3.40
2023-10-31T11:31:02.300Z,3.80
2023-10-31T11:33:33.706Z,3.90
2023-10-31T11:36:03.155Z,3.40
2023-10-31T11:38:37.041Z,3.90
2023-10-31T11:41:06.552Z,3.60
2023-10-31T11:43:40.757Z,3.20
2023-10-31T11:46:24.562Z,3.30
2023-10-31T11:48:54.384Z,2.70
2023-10-31T11:51:25.537Z,2.60
2023-10-31T11:53:53.840Z,2.70
2023-10-31T11:56:23.476Z,2.70
2023-10-31T11:59:04.022Z,2.70
2023-10-31T12:08:42.847Z,2.50
2023-10-31T12:11:10.721Z,2.70
2023-10-31T12:13:40.729Z,2.50
2023-10-31T12:16:11.566Z,2.50
2023-10-31T12:18:41.876Z,2.40
2023-10-31T12:21:09.318Z,2.50
2023-10-31T12:23:35.875Z,2.60
2023-10-31T12:26:02.843Z,2.50
2023-10-31T12:28:30.157Z,2.20
2023-10-31T12:30:58.688Z,2.20
2023-10-31T12:33:28.585Z,1.90
2023-10-31T12:35:59.890Z,2.10
2023-10-31T12:38:27.654Z,2.10
2023-10-31T12:40:57.239Z,1.70
2023-10-31T12:43:24.048Z,1.70
2023-10-31T12:45:51.887Z,1.80
2023-10-31T12:48:24.761Z,1.50
2023-10-31T12:51:10.052Z,1.70
2023-10-31T12:53:36.566Z,1.90
2023-10-31T12:56:03.471Z,1.70
2023-10-31T12:58:31.128Z,1.80
2023-10-31T13:00:57.816Z,1.60
2023-10-31T13:03:24.504Z,1.60
2023-10-31T13:05:51.639Z,1.30
2023-10-31T13:08:18.262Z,1.60
2023-10-31T13:10:44.804Z,1.60
2023-10-31T13:13:12.866Z,1.60
2023-10-31T13:15:39.385Z,1.40
2023-10-31T13:18:06.511Z,1.50
2023-10-31T13:20:33.398Z,1.50
2023-10-31T13:23:03.786Z,1.40
2023-10-31T13:25:32.024Z,1.60
2023-10-31T13:27:58.956Z,1.50
2023-10-31T13:30:26.876Z,1.60
2023-10-31T13:32:53.641Z,1.50
2023-10-31T13:35:20.962Z,1.50
2023-10-31T13:37:47.696Z,1.40
2023-10-31T13:40:15.429Z,1.60
2023-10-31T13:42:41.872Z,1.60
2023-10-31T13:45:09.468Z,1.50
2023-10-31T13:47:39.136Z,1.40
2023-10-31T13:50:09.234Z,1.50
2023-10-31T13:52:35.789Z,1.50
2023-10-31T13:55:04.760Z,1.30
2023-10-31T13:57:34.299Z,1.30
2023-10-31T14:00:03.177Z,1.30
2023-10-31T14:02:30.666Z,1.60
2023-10-31T14:04:59.983Z,2.00
2023-10-31T14:07:27.918Z,1.60
2023-10-31T14:12:33.555Z,1.50
2023-10-31T14:15:01.485Z,1.60
2023-10-31T14:18:10.558Z,1.40
2023-10-31T14:20:37.331Z,1.80
2023-10-31T14:23:03.936Z,1.90
2023-10-31T14:25:30.910Z,1.50
2023-10-31T14:27:58.432Z,1.40
2023-10-31T14:30:25.866Z,1.30
2023-10-31T14:32:52.389Z,1.50
2023-10-31T14:35:18.973Z,1.50
2023-10-31T14:37:45.629Z,1.60
2023-10-31T14:40:12.891Z,1.90
2023-10-31T14:42:39.972Z,1.40
2023-10-31T14:45:06.959Z,1.70
2023-10-31T14:47:35.193Z,1.80
2023-10-31T14:50:02.406Z,1.70
2023-10-31T14:52:30.684Z,1.60
2023-10-31T14:54:57.524Z,1.50
2023-10-31T14:57:24.169Z,1.60
2023-10-31T14:59:50.694Z,1.50
2023-10-31T15:02:17.443Z,1.70
2023-10-31T15:04:44.000Z,1.60
2023-10-31T15:07:10.726Z,1.60
2023-10-31T15:09:39.596Z,1.80
2023-10-31T15:12:08.930Z,1.60
2023-10-31T15:14:36.915Z,1.80
2023-10-31T15:17:04.627Z,1.70
2023-10-31T15:19:31.073Z,1.80
2023-10-31T15:21:57.448Z,1.70
2023-10-31T15:24:24.061Z,1.80
2023-10-31T15:26:50.654Z,1.80
2023-10-31T15:29:17.228Z,1.90
2023-10-31T15:31:47.999Z,1.90
2023-10-31T15:34:14.478Z,2.10
2023-10-31T15:36:40.944Z,1.70
2023-10-31T15:39:09.132Z,2.10
2023-10-31T15:41:36.430Z,2.10
2023-10-31T15:44:03.830Z,2.10
2023-10-31T15:46:30.856Z,2.20
2023-10-31T15:48:57.446Z,2.10
2023-10-31T15:51:23.975Z,2.00
2023-10-31T15:53:51.328Z,1.90
2023-10-31T15:56:17.794Z,1.90
2023-10-31T15:58:44.537Z,2.00
2023-10-31T16:01:11.193Z,2.20
2023-10-31T16:03:38.621Z,2.20
2023-10-31T16:06:05.836Z,2.20
2023-10-31T16:08:32.346Z,1.60
2023-10-31T16:10:59.018Z,1.90
2023-10-31T16:13:25.442Z,1.90
2023-10-31T16:15:52.774Z,2.00
2023-10-31T16:18:19.230Z,2.10
2023-10-31T16:20:47.473Z,2.20
2023-10-31T16:23:16.509Z,2.00
2023-10-31T16:25:42.946Z,2.10
2023-10-31T16:28:10.006Z,1.70
2023-10-31T16:30:36.460Z,1.80
2023-10-31T16:33:03.039Z,2.00
2023-10-31T16:35:29.690Z,2.10
2023-10-31T16:37:56.191Z,1.80
2023-10-31T16:40:25.011Z,1.90
2023-10-31T16:42:51.392Z,2.40
2023-10-31T16:45:18.089Z,2.30
2023-10-31T16:47:44.977Z,2.10
2023-10-31T16:50:11.427Z,2.30
2023-10-31T16:52:37.860Z,2.00
2023-10-31T16:55:04.548Z,2.10
2023-10-31T16:57:31.447Z,2.50
2023-10-31T16:59:57.929Z,2.30
2023-10-31T17:02:25.514Z,2.50
2023-10-31T17:04:56.991Z,2.70
2023-10-31T17:07:26.596Z,2.70
2023-10-31T17:09:52.923Z,2.70
2023-10-31T17:12:19.379Z,2.80
2023-10-31T17:14:45.967Z,2.80
2023-10-31T17:17:13.210Z,4.20
2023-10-31T17:19:39.765Z,3.00
2023-10-31T17:22:06.820Z,2.50
2023-10-31T17:24:33.563Z,2.90
2023-10-31T17:26:59.983Z,3.00
2023-10-31T17:29:26.572Z,3.10
2023-10-31T17:31:53.036Z,2.90
2023-10-31T17:34:21.891Z,3.10
2023-10-31T17:36:48.484Z,3.20
2023-10-31T17:39:15.301Z,2.80
2023-10-31T17:41:42.119Z,3.10
2023-10-31T17:44:08.928Z,3.10
2023-10-31T17:46:35.567Z,2.70
2023-10-31T17:49:02.076Z,2.60
2023-10-31T17:51:28.457Z,2.40
2023-10-31T17:53:55.174Z,2.50
2023-10-31T17:56:21.726Z,2.60
2023-10-31T17:58:48.363Z,2.60
2023-10-31T18:01:14.886Z,2.70
2023-10-31T18:03:41.561Z,2.40
2023-10-31T18:06:08.759Z,2.30
2023-10-31T18:08:35.224Z,2.30
2023-10-31T18:11:02.544Z,2.50
2023-10-31T18:13:28.964Z,2.30
2023-10-31T18:15:56.504Z,2.30
2023-10-31T18:18:23.065Z,2.30
2023-10-31T18:20:51.682Z,2.20
2023-10-31T18:23:18.165Z,2.10
2023-10-31T18:25:44.828Z,2.30
2023-10-31T18:28:12.774Z,2.30
2023-10-31T18:30:40.405Z,2.50
2023-10-31T18:33:08.201Z,2.30
2023-10-31T18:35:34.692Z,2.80
2023-10-31T18:38:02.789Z,3.10
2023-10-31T18:40:30.129Z,3.10
2023-10-31T18:42:56.580Z,2.70
2023-10-31T18:45:23.952Z,2.60
2023-10-31T18:47:50.801Z,2.90
2023-10-31T18:50:17.273Z,3.30
2023-10-31T18:52:43.625Z,2.80
2023-10-31T18:55:10.181Z,3.20
2023-10-31T18:57:36.575Z,3.10
2023-10-31T19:00:04.439Z,3.50
2023-10-31T19:02:34.731Z,3.00
2023-10-31T19:05:01.354Z,2.90
2023-10-31T19:07:27.809Z,3.10
2023-10-31T19:09:54.582Z,3.00
2023-10-31T19:12:21.950Z,3.10
2023-10-31T19:14:48.437Z,3.10
2023-10-31T19:17:14.971Z,2.70
2023-10-31T19:19:44.798Z,2.90
2023-10-31T19:22:11.180Z,3.00
2023-10-31T19:24:37.807Z,3.20
2023-10-31T19:27:04.355Z,4.00
2023-10-31T19:29:30.833Z,3.50
2023-10-31T19:31:57.261Z,3.50
2023-10-31T19:34:24.058Z,3.20
2023-10-31T19:36:52.689Z,3.20
2023-10-31T19:39:19.653Z,3.20
2023-10-31T19:41:46.385Z,3.30
2023-10-31T19:44:12.855Z,3.20
2023-10-31T19:46:40.078Z,3.30
2023-10-31T19:49:06.463Z,3.20
2023-10-31T19:51:33.194Z,3.70
2023-10-31T19:53:59.629Z,3.70
2023-10-31T19:56:26.569Z,3.50
2023-10-31T19:58:54.328Z,3.80
2023-10-31T20:01:21.097Z,3.70
2023-10-31T20:03:47.629Z,3.80
2023-10-31T20:06:14.155Z,3.90
2023-10-31T20:08:40.712Z,3.90
2023-10-31T20:13:20.602Z,3.90
2023-10-31T20:15:49.993Z,4.20
2023-10-31T20:18:17.020Z,4.10
2023-10-31T20:20:43.582Z,4.00
2023-10-31T20:23:10.203Z,3.90
2023-10-31T20:25:37.717Z,3.90
2023-10-31T20:28:04.620Z,4.10
2023-10-31T20:30:34.253Z,3.90
2023-10-31T20:33:00.758Z,4.20
2023-10-31T20:35:27.373Z,3.50
2023-10-31T20:37:53.798Z,3.90
2023-10-31T20:40:20.300Z,3.00
2023-10-31T20:42:46.769Z,3.10
2023-10-31T20:47:14.518Z,2.80
2023-10-31T20:50:55.502Z,2.40
2023-10-31T20:54:30.739Z,2.70
2023-10-31T20:56:59.317Z,2.60
2023-10-31T20:59:27.807Z,2.50
2023-10-31T21:01:55.620Z,2.70
2023-10-31T21:04:26.460Z,2.60
2023-10-31T21:40:24.440Z,2.30
2023-10-31T21:43:31.914Z,2.70
2023-10-31T21:58:14.169Z,2.40
2023-10-31T22:11:47.410Z,2.10
2023-10-31T22:14:53.084Z,2.50
2023-10-31T22:18:35.651Z,2.10
2023-10-31T22:22:09.351Z,2.20
2023-10-31T22:25:52.387Z,2.00
2023-10-31T22:29:29.593Z,1.90
2023-10-31T22:33:13.097Z,2.00
2023-10-31T22:36:50.416Z,1.90
2023-10-31T22:51:14.382Z,2.10
2023-10-31T23:10:44.509Z,1.90
2023-10-31T23:45:21.297Z,1.70
2023-10-31T23:48:14.040Z,1.80
